Time;durP1;ratioP1;P1;durP2;ratioP2;P2;SDS_P1;SDS_P2;PMS_P1;PMS_P2;Temp;Humidity;BMP_temperature;BMP_pressure;BME280_temperature;BME280_humidity;BME280_pressure;Samples;Min_cycle;Max_cycle;Signal;HPM_P1;HPM_P2
2021/03/23 00:01:46;;;;;;;5.18;1.30;;;;;;;5.32;84.83;102243.19;6174472;28;20682;-73
2021/03/23 00:04:47;;;;;;;3.25;1.38;;;;;;;5.33;84.22;102239.69;6174888;28;20051;-74
2021/03/23 00:07:48;;;;;;;6.10;1.60;;;;;;;5.22;85.37;102237.19;6174688;28;20054;-74
2021/03/23 00:10:50;;;;;;;5.38;1.50;;;;;;;5.18;85.77;102240.69;6174554;28;20058;-73
2021/03/23 00:13:52;;;;;;;3.42;1.35;;;;;;;5.26;84.79;102246.69;6174426;28;20055;-74
2021/03/23 00:16:53;;;;;;;5.50;1.60;;;;;;;5.17;85.56;102241.53;6174383;28;20191;-77
2021/03/23 00:19:53;;;;;;;5.43;1.88;;;;;;;5.35;85.57;102243.16;6174564;28;20046;-74
2021/03/23 00:22:54;;;;;;;4.32;1.63;;;;;;;5.24;85.35;102239.78;6174078;28;20720;-76
2021/03/23 00:25:56;;;;;;;5.05;1.58;;;;;;;5.37;84.78;102245.75;6220874;23;20112;-78
2021/03/23 00:28:57;;;;;;;2.95;1.52;;;;;;;5.46;83.70;102246.56;6197081;28;20064;-78
2021/03/23 00:31:58;;;;;;;5.18;1.80;;;;;;;5.33;83.77;102242.31;6196587;28;20385;-78
2021/03/23 00:34:59;;;;;;;4.38;1.67;;;;;;;5.44;83.36;102244.81;6198237;28;20050;-78
2021/03/23 00:38:04;;;;;;;3.00;1.45;;;;;;;5.44;83.90;102244.81;6197662;28;20057;-77
2021/03/23 00:41:07;;;;;;;5.57;1.77;;;;;;;5.28;84.49;102242.34;6206539;28;20053;-79
2021/03/23 00:44:11;;;;;;;7.47;1.80;;;;;;;5.20;84.57;102243.28;6198422;28;20050;-78
2021/03/23 00:47:12;;;;;;;11.15;2.40;;;;;;;5.14;85.19;102245.94;6198259;28;20058;-79
2021/03/23 00:50:14;;;;;;;6.50;1.73;;;;;;;5.12;85.05;102251.13;6197750;28;20707;-78
2021/03/23 00:53:15;;;;;;;4.40;2.05;;;;;;;5.25;83.60;102241.50;6213094;28;20462;-79
2021/03/23 00:56:17;;;;;;;5.88;2.03;;;;;;;5.10;84.96;102242.47;6222304;28;20071;-78
2021/03/23 00:59:18;;;;;;;6.22;2.00;;;;;;;5.21;84.06;102250.19;6222533;28;20058;-78
2021/03/23 01:02:19;;;;;;;6.70;2.17;;;;;;;5.31;83.87;102241.44;6222023;28;20049;-78
2021/03/23 01:05:22;;;;;;;6.45;2.53;;;;;;;5.11;84.47;102236.38;6222299;28;20049;-79
2021/03/23 01:08:23;;;;;;;7.22;2.60;;;;;;;5.22;83.95;102234.56;6222393;28;20050;-79
2021/03/23 01:11:25;;;;;;;12.45;2.08;;;;;;;5.15;84.74;102226.81;6222221;28;20046;-79
2021/03/23 01:14:26;;;;;;;9.90;2.78;;;;;;;5.05;84.41;102220.78;6222284;28;20054;-79
2021/03/23 01:17:27;;;;;;;5.32;2.35;;;;;;;4.98;85.12;102221.69;6222276;28;20101;-79
2021/03/23 01:20:30;;;;;;;6.20;2.40;;;;;;;5.30;83.50;102224.06;6222173;28;20526;-78
2021/03/23 01:23:31;;;;;;;10.30;2.50;;;;;;;5.03;85.14;102222.53;6221874;28;20058;-78
2021/03/23 01:26:33;;;;;;;7.57;2.90;;;;;;;4.99;85.47;102223.41;6221935;28;20667;-78
2021/03/23 01:29:34;;;;;;;6.20;2.40;;;;;;;5.19;83.62;102216.34;6222447;28;20057;-79
2021/03/23 01:32:36;;;;;;;6.75;2.35;;;;;;;5.09;84.40;102218.16;6221888;28;20057;-78
2021/03/23 01:35:37;;;;;;;10.48;2.75;;;;;;;5.13;84.49;102220.72;6221916;28;20046;-78
2021/03/23 01:38:38;;;;;;;12.85;2.63;;;;;;;5.16;83.78;102223.31;6221986;28;20064;-78
2021/03/23 01:41:39;;;;;;;12.27;3.35;;;;;;;5.06;85.23;102230.34;6221841;28;20050;-78
2021/03/23 01:44:41;;;;;;;10.70;2.85;;;;;;;5.12;84.84;102222.47;6222115;28;20046;-79
2021/03/23 01:47:42;;;;;;;7.97;2.67;;;;;;;5.11;85.17;102225.09;6221713;28;20046;-78
2021/03/23 01:50:46;;;;;;;6.13;2.78;;;;;;;5.33;84.33;102229.28;6221613;28;20053;-78
2021/03/23 01:53:54;;;;;;;6.05;2.83;;;;;;;5.11;85.29;102233.78;6221846;28;20050;-80
2021/03/23 01:57:00;;;;;;;18.23;2.83;;;;;;;5.01;86.04;102227.75;6221755;28;20064;-79
2021/03/23 02:00:01;;;;;;;5.80;2.60;;;;;;;5.20;85.93;102227.63;6224251;28;20054;-79
2021/03/23 02:03:04;;;;;;;6.15;2.70;;;;;;;5.03;86.16;102227.75;6226202;28;20057;-79
2021/03/23 02:06:06;;;;;;;6.35;2.72;;;;;;;5.06;86.47;102228.59;6226321;28;20491;-78
2021/03/23 02:09:11;;;;;;;7.07;2.50;;;;;;;4.86;87.79;102220.06;6226035;28;20498;-79
2021/03/23 02:12:17;;;;;;;5.65;2.70;;;;;;;4.96;87.03;102220.84;6226021;28;20056;-78
2021/03/23 02:15:21;;;;;;;7.47;2.92;;;;;;;5.01;87.46;102219.09;6225960;28;20068;-78
2021/03/23 02:18:24;;;;;;;7.82;2.80;;;;;;;5.10;87.27;102213.81;6225904;28;20071;-79
2021/03/23 02:21:26;;;;;;;6.50;2.78;;;;;;;5.00;88.41;102210.41;6225549;28;20413;-78
2021/03/23 02:24:27;;;;;;;5.45;2.97;;;;;;;5.08;86.97;102197.31;6225622;28;20053;-79
2021/03/23 02:27:29;;;;;;;9.07;2.53;;;;;;;4.86;88.35;102198.31;6225782;28;20145;-79
2021/03/23 02:30:34;;;;;;;5.20;2.60;;;;;;;5.05;87.68;102195.59;6225429;28;20053;-79
2021/03/23 02:33:35;;;;;;;7.05;2.67;;;;;;;4.84;88.45;102201.81;6225460;28;20049;-77
2021/03/23 02:36:38;;;;;;;10.35;2.88;;;;;;;5.03;87.95;102197.34;6225750;28;20056;-79
2021/03/23 02:39:39;;;;;;;12.07;3.17;;;;;;;4.83;88.75;102199.22;6225655;28;20050;-79
2021/03/23 02:42:40;;;;;;;9.57;2.83;;;;;;;4.80;89.10;102204.44;6225285;28;20092;-79
2021/03/23 02:45:47;;;;;;;5.63;2.65;;;;;;;4.80;88.75;102199.22;6225008;28;20395;-79
2021/03/23 02:48:48;;;;;;;5.10;2.47;;;;;;;4.94;88.35;102199.16;6225150;28;20050;-78
2021/03/23 02:51:50;;;;;;;5.72;2.13;;;;;;;5.00;87.65;102199.13;6224935;28;20054;-79
2021/03/23 02:54:51;;;;;;;4.88;2.90;;;;;;;4.90;88.56;102205.25;6225050;28;20053;-78
2021/03/23 02:57:52;;;;;;;9.73;2.67;;;;;;;4.80;89.11;102199.22;6224888;28;20418;-78
2021/03/23 03:00:53;;;;;;;7.13;2.38;;;;;;;4.84;89.05;102203.56;6224466;28;20046;-78
2021/03/23 03:03:54;;;;;;;7.70;2.80;;;;;;;4.87;88.91;102213.09;6224697;28;20466;-78
2021/03/23 03:06:55;;;;;;;11.88;3.30;;;;;;;4.77;89.69;102210.56;6224751;28;20057;-78
2021/03/23 03:09:56;;;;;;;5.25;2.70;;;;;;;4.74;89.99;102213.16;6224602;28;20507;-79
2021/03/23 03:12:58;;;;;;;5.05;2.92;;;;;;;4.95;89.70;102211.28;6224033;28;20089;-79
2021/03/23 03:16:00;;;;;;;9.68;4.10;;;;;;;4.92;89.11;102214.78;6223847;28;20502;-78
2021/03/23 03:19:01;;;;;;;21.13;3.53;;;;;;;4.84;89.37;102214.84;6224870;28;20140;-78
2021/03/23 03:22:03;;;;;;;7.95;3.53;;;;;;;4.78;90.65;102227.03;6224185;28;20578;-79
2021/03/23 03:25:05;;;;;;;7.82;3.38;;;;;;;4.73;91.21;102221.84;6224220;28;20045;-78
2021/03/23 03:28:07;;;;;;;9.80;3.40;;;;;;;4.96;89.91;102210.44;6224346;28;20060;-77
2021/03/23 03:31:09;;;;;;;8.38;3.38;;;;;;;4.80;90.73;102217.47;6223992;28;20050;-78
2021/03/23 03:34:10;;;;;;;8.57;3.85;;;;;;;5.06;89.43;102210.34;6224130;28;20133;-78
2021/03/23 03:37:11;;;;;;;8.25;3.65;;;;;;;5.08;89.40;102215.53;6224255;28;20058;-78
2021/03/23 03:40:18;;;;;;;5.93;3.28;;;;;;;4.92;89.60;102212.19;6224101;28;20053;-77
2021/03/23 03:43:21;;;;;;;12.07;3.80;;;;;;;4.81;89.82;102212.25;6223944;28;20046;-78
2021/03/23 03:46:22;;;;;;;6.40;3.53;;;;;;;4.79;90.20;102213.13;6223833;28;20045;-79
2021/03/23 03:49:23;;;;;;;7.57;3.40;;;;;;;4.86;88.42;102207.03;6223607;28;20414;-79
2021/03/23 03:52:26;;;;;;;11.48;4.10;;;;;;;4.81;89.61;102196.63;6223406;28;20042;-79
2021/03/23 03:55:29;;;;;;;9.55;3.97;;;;;;;4.91;89.05;102213.06;6223617;28;20224;-79
2021/03/23 03:58:30;;;;;;;7.90;4.32;;;;;;;4.76;89.61;102210.53;6223666;28;20050;-79
2021/03/23 04:01:31;;;;;;;8.90;3.72;;;;;;;4.98;88.83;102206.06;6223361;28;20056;-79
2021/03/23 04:04:32;;;;;;;8.27;4.00;;;;;;;4.89;88.66;102213.94;6223556;28;20092;-78
2021/03/23 04:07:33;;;;;;;10.55;3.75;;;;;;;4.88;88.87;102209.63;6223412;28;20066;-78
2021/03/23 04:10:35;;;;;;;9.80;3.70;;;;;;;4.97;87.30;102215.63;6223509;28;20092;-78
2021/03/23 04:13:36;;;;;;;8.15;3.72;;;;;;;4.82;87.95;102219.19;6223180;28;20053;-79
2021/03/23 04:16:37;;;;;;;5.93;3.40;;;;;;;5.04;87.21;102219.94;6223285;28;20085;-78
2021/03/23 04:19:38;;;;;;;9.80;3.97;;;;;;;4.91;87.39;102212.22;6223306;28;20058;-78
2021/03/23 04:22:40;;;;;;;11.75;4.32;;;;;;;4.81;88.07;102221.78;6222533;28;20050;-78
2021/03/23 04:25:41;;;;;;;10.15;3.92;;;;;;;4.83;88.30;102218.31;6222959;28;20058;-77
2021/03/23 04:28:42;;;;;;;10.38;3.75;;;;;;;4.74;88.71;102218.38;6222899;28;20557;-79
2021/03/23 04:31:43;;;;;;;6.57;3.63;;;;;;;4.70;89.01;102216.66;6222717;28;20049;-78
2021/03/23 04:34:44;;;;;;;8.10;3.85;;;;;;;4.67;89.16;102216.66;6222771;28;20050;-77
2021/03/23 04:37:46;;;;;;;6.72;3.88;;;;;;;4.65;89.39;102212.34;6223000;28;20061;-79
2021/03/23 04:40:48;;;;;;;10.40;4.28;;;;;;;4.65;89.71;102217.56;6222916;28;20054;-79
2021/03/23 04:43:51;;;;;;;9.45;3.97;;;;;;;4.65;89.95;102213.22;6222734;28;20052;-78
2021/03/23 04:46:52;;;;;;;8.00;3.88;;;;;;;4.68;90.11;102218.41;6222673;28;20128;-78
2021/03/23 04:49:53;;;;;;;7.90;3.95;;;;;;;4.67;90.27;102219.25;6196065;28;20567;-79
2021/03/23 04:52:54;;;;;;;10.10;3.70;;;;;;;4.65;90.07;102218.41;6180125;28;20078;-79
2021/03/23 04:55:56;;;;;;;10.93;3.83;;;;;;;4.66;90.73;102216.69;6174261;28;20074;-78
2021/03/23 04:58:58;;;;;;;9.82;4.28;;;;;;;4.67;90.87;102215.78;6173916;28;20046;-79
2021/03/23 05:01:58;;;;;;;8.55;4.32;;;;;;;4.65;91.41;102222.75;6173566;28;20507;-78
2021/03/23 05:04:59;;;;;;;10.80;3.88;;;;;;;4.63;91.40;102227.09;6174018;28;20062;-78
2021/03/23 05:08:01;;;;;;;8.32;4.05;;;;;;;4.64;91.47;102229.72;6173943;28;20504;-79
2021/03/23 05:11:06;;;;;;;7.80;3.70;;;;;;;4.67;91.56;102239.22;6173644;28;20043;-78
2021/03/23 05:14:08;;;;;;;7.63;3.88;;;;;;;4.70;91.05;102249.63;6173558;28;20061;-78
2021/03/23 05:17:10;;;;;;;7.40;3.67;;;;;;;4.73;91.12;102255.72;6173733;28;20538;-79
2021/03/23 05:20:12;;;;;;;8.25;3.88;;;;;;;4.67;92.24;102244.44;6173621;28;20046;-78
2021/03/23 05:23:14;;;;;;;9.57;4.55;;;;;;;4.68;92.19;102246.16;6173576;28;20054;-78
2021/03/23 05:26:15;;;;;;;7.63;3.72;;;;;;;4.70;92.03;102260.91;6173395;28;20058;-79
2021/03/23 05:29:15;;;;;;;17.90;4.22;;;;;;;4.66;92.04;102264.41;6173455;28;20086;-78
2021/03/23 05:32:16;;;;;;;10.15;4.28;;;;;;;4.65;92.30;102244.47;6173301;28;20126;-78
2021/03/23 05:35:18;;;;;;;10.57;4.03;;;;;;;4.66;92.54;102260.94;6176331;28;20051;-78
2021/03/23 05:38:20;;;;;;;7.53;3.78;;;;;;;4.70;92.52;102267.88;6178398;28;20059;-79
2021/03/23 05:41:27;;;;;;;7.68;3.95;;;;;;;4.67;92.28;102267.88;6178069;28;20054;-79
2021/03/23 05:44:52;;;;;;;9.52;3.70;;;;;;;4.87;91.89;102263.44;6178460;28;20059;-78
2021/03/23 05:48:14;;;;;;;7.85;3.65;;;;;;;4.76;91.81;102254.81;6178029;28;20061;-78
2021/03/23 05:51:21;;;;;;;9.63;4.28;;;;;;;4.68;92.59;102251.38;6177953;28;20047;-79
2021/03/23 05:54:33;;;;;;;11.02;4.25;;;;;;;4.68;92.42;102251.38;6177834;28;20047;-78
2021/03/23 05:57:37;;;;;;;13.90;4.20;;;;;;;4.64;92.75;102234.91;6177911;28;20051;-78
2021/03/23 06:00:39;;;;;;;8.77;4.28;;;;;;;4.68;92.60;102253.97;6187582;28;20058;-79
2021/03/23 06:03:45;;;;;;;10.60;4.18;;;;;;;4.67;93.29;102255.72;6201577;28;20108;-78
2021/03/23 06:06:51;;;;;;;9.80;4.35;;;;;;;4.85;91.98;102259.97;6202215;28;20047;-78
2021/03/23 06:09:53;;;;;;;8.27;4.70;;;;;;;4.73;92.86;102254.84;6201870;28;20050;-78
2021/03/23 06:13:03;;;;;;;14.50;4.80;;;;;;;4.71;92.06;102246.16;6200873;28;20046;-79
2021/03/23 06:16:14;;;;;;;9.50;4.35;;;;;;;4.70;92.36;102236.63;6201370;28;20047;-79
2021/03/23 06:19:23;;;;;;;6.90;4.00;;;;;;;4.69;91.85;102238.38;6201436;28;20557;-77
2021/03/23 06:22:44;;;;;;;8.97;4.47;;;;;;;4.69;92.26;102237.50;6201534;28;20058;-79
2021/03/23 06:25:47;;;;;;;8.10;3.83;;;;;;;4.69;91.91;102229.69;6223207;23;20050;-77
2021/03/23 06:29:04;;;;;;;6.55;3.78;;;;;;;4.71;92.23;102234.00;6200191;28;20070;-78
2021/03/23 06:32:31;;;;;;;9.20;4.03;;;;;;;4.75;92.34;102227.91;6191013;28;20173;-78
2021/03/23 06:35:34;;;;;;;6.88;3.60;;;;;;;4.78;91.60;102237.47;6178067;28;20050;-79
2021/03/23 06:38:37;;;;;;;10.82;3.92;;;;;;;4.79;91.33;102231.38;6200045;28;20051;-78
2021/03/23 06:41:51;;;;;;;7.65;3.65;;;;;;;4.79;91.00;102234.84;6192265;28;20051;-78
2021/03/23 06:45:11;;;;;;;8.02;3.78;;;;;;;4.87;90.84;102226.13;6200683;28;20109;-78
2021/03/23 06:48:23;;;;;;;6.75;3.83;;;;;;;4.86;91.03;102232.19;6200304;28;20054;-78
2021/03/23 06:51:24;;;;;;;7.00;3.78;;;;;;;4.87;90.32;102223.53;6200612;28;20053;-79
2021/03/23 06:54:27;;;;;;;10.25;3.65;;;;;;;4.89;89.92;102222.63;6200649;28;20054;-80
2021/03/23 06:57:30;;;;;;;13.93;3.53;;;;;;;5.02;89.33;102221.66;6200526;28;20105;-80
2021/03/23 07:00:33;;;;;;;12.50;3.40;;;;;;;4.95;89.32;102226.91;6183517;28;20055;-80
2021/03/23 07:03:34;;;;;;;8.18;3.65;;;;;;;4.98;89.01;102230.38;6191278;28;20055;-80
2021/03/23 07:06:35;;;;;;;14.52;4.22;;;;;;;4.99;88.56;102228.63;6200106;28;20507;-80
2021/03/23 07:09:45;;;;;;;12.60;4.07;;;;;;;4.99;88.64;102226.03;6200349;28;20126;-80
2021/03/23 07:12:47;;;;;;;7.28;3.60;;;;;;;5.08;88.38;102228.56;6199359;28;20050;-80
2021/03/23 07:15:57;;;;;;;17.55;3.63;;;;;;;5.14;88.25;102217.25;6200144;28;20050;-80
2021/03/23 07:19:07;;;;;;;;;;;;;;;5.28;87.52;102216.28;6200046;28;20056;-80
2021/03/23 07:22:15;;;;;;;6.93;3.55;;;;;;;5.30;86.77;102216.25;6199884;28;19922;-79
2021/03/23 07:25:33;;;;;;;7.90;3.40;;;;;;;5.27;87.04;102221.50;6199482;28;20051;-80
2021/03/23 07:28:37;;;;;;;11.18;3.65;;;;;;;5.27;86.64;102227.59;6199671;28;20400;-80
2021/03/23 07:31:43;;;;;;;13.38;4.43;;;;;;;5.23;86.30;102233.69;6199365;28;20055;-80
2021/03/23 07:34:54;;;;;;;16.83;5.30;;;;;;;5.45;85.23;102233.50;6199719;28;20057;-79
2021/03/23 07:38:01;;;;;;;17.92;3.70;;;;;;;5.59;85.29;102231.69;6199602;28;20129;-80
2021/03/23 07:41:05;;;;;;;7.50;3.35;;;;;;;5.54;85.76;102239.53;6199268;28;20189;-80
2021/03/23 07:44:16;;;;;;;6.95;3.95;;;;;;;5.74;83.49;102234.13;6199416;28;20057;-80
2021/03/23 07:47:30;;;;;;;14.27;3.42;;;;;;;5.73;83.10;102240.22;6199156;28;20531;-79
2021/03/23 07:50:34;;;;;;;16.52;5.78;;;;;;;5.53;84.28;102235.16;6198967;28;20104;-79
2021/03/23 07:53:39;;;;;;;12.00;4.47;;;;;;;5.55;84.92;102237.78;6198910;28;20496;-80
2021/03/23 07:56:55;;;;;;;11.02;4.03;;;;;;;5.62;84.63;102239.44;6198864;28;20058;-80
2021/03/23 08:00:15;;;;;;;11.88;3.40;;;;;;;5.76;82.77;102242.78;6198088;28;20062;-79
2021/03/23 08:03:37;;;;;;;14.05;4.13;;;;;;;5.81;83.61;102240.13;6197952;28;20093;-79
2021/03/23 08:06:52;;;;;;;8.25;3.40;;;;;;;6.04;82.42;102237.34;6198498;28;20089;-79
2021/03/23 08:10:17;;;;;;;12.32;4.03;;;;;;;5.91;81.23;102230.50;6198567;28;20499;-78
2021/03/23 08:13:34;;;;;;;8.35;3.72;;;;;;;5.91;81.75;102233.13;6197713;28;20084;-79
2021/03/23 08:16:46;;;;;;;8.35;4.30;;;;;;;6.14;81.90;102238.13;6177193;28;20050;-80
2021/03/23 08:20:17;;;;;;;15.23;4.25;;;;;;;6.08;80.34;102247.72;6174066;28;20054;-80
2021/03/23 08:23:28;;;;;;;10.77;4.40;;;;;;;6.03;80.31;102248.66;6172286;28;20094;-80
2021/03/23 08:26:41;;;;;;;14.45;4.43;;;;;;;6.06;80.42;102243.41;6186912;28;20050;-79
2021/03/23 08:29:53;;;;;;;10.77;4.63;;;;;;;6.11;79.86;102239.00;6195070;28;20141;-80
2021/03/23 08:33:04;;;;;;;15.68;4.75;;;;;;;6.27;80.63;102239.72;6179560;28;20050;-72
2021/03/23 08:36:21;;;;;;;14.73;4.07;;;;;;;6.66;78.74;102237.50;6184433;28;20054;-79
2021/03/23 08:39:34;;;;;;;18.08;4.97;;;;;;;6.40;79.32;102250.84;6184605;28;20161;-78
2021/03/23 08:42:37;;;;;;;12.48;5.05;;;;;;;6.70;77.83;102255.72;6180904;28;20055;-78
2021/03/23 08:45:44;;;;;;;12.07;4.45;;;;;;;6.67;78.22;102254.88;6173480;28;20427;-78
2021/03/23 08:48:50;;;;;;;11.45;5.65;;;;;;;6.45;79.16;102252.56;6173485;28;20051;-79
2021/03/23 08:51:52;;;;;;;13.32;5.53;;;;;;;6.42;79.12;102249.97;6179214;28;20046;-78
2021/03/23 08:54:54;;;;;;;14.68;6.07;;;;;;;6.76;78.31;102254.75;6197901;28;20058;-79
2021/03/23 08:57:59;;;;;;;12.43;4.85;;;;;;;6.65;78.03;102260.13;6197498;28;20047;-77
2021/03/23 09:01:02;;;;;;;13.43;5.63;;;;;;;6.57;78.35;102255.00;6197126;28;20042;-78
2021/03/23 09:04:28;;;;;;;14.73;5.80;;;;;;;6.67;77.43;102262.72;6197413;28;20078;-78
2021/03/23 09:07:33;;;;;;;13.45;5.30;;;;;;;6.66;77.96;102263.59;6196990;28;20061;-77
2021/03/23 09:10:49;;;;;;;13.55;5.85;;;;;;;7.01;75.99;102265.75;6195075;28;20054;-76
2021/03/23 09:14:17;;;;;;;12.60;6.15;;;;;;;6.94;76.95;102256.25;6196821;28;20054;-71
2021/03/23 09:17:35;;;;;;;10.45;5.43;;;;;;;7.05;75.47;102257.00;6197610;28;20057;-72
2021/03/23 09:21:04;;;;;;;13.13;5.75;;;;;;;7.24;75.76;102262.81;6197269;28;20411;-72
2021/03/23 09:24:24;;;;;;;18.80;5.95;;;;;;;7.09;74.14;102254.31;6196926;28;20135;-71
2021/03/23 09:28:04;;;;;;;15.10;6.85;;;;;;;7.30;72.92;102249.63;6197210;28;20058;-75
2021/03/23 09:31:05;;;;;;;15.77;6.80;;;;;;;7.16;75.19;102259.44;6186014;28;20522;-75
2021/03/23 09:34:45;;;;;;;15.25;6.97;;;;;;;7.36;73.31;102254.78;6197049;28;20418;-72
2021/03/23 09:37:51;;;;;;;17.88;7.28;;;;;;;7.44;72.56;102250.25;6196943;28;20478;-71
2021/03/23 09:40:55;;;;;;;14.75;6.93;;;;;;;7.43;74.77;102253.78;6196260;28;20137;-72
2021/03/23 09:44:38;;;;;;;17.42;6.65;;;;;;;7.47;73.51;102239.78;6196886;28;20138;-72
2021/03/23 09:47:51;;;;;;;23.42;7.75;;;;;;;7.52;72.28;102250.16;6196813;28;20650;-72
2021/03/23 09:51:01;;;;;;;20.20;7.85;;;;;;;7.43;73.27;102248.56;6196403;28;20055;-72
2021/03/23 09:54:03;;;;;;;19.27;7.88;;;;;;;7.31;72.96;102243.50;6196714;28;20423;-72
2021/03/23 09:57:12;;;;;;;22.40;8.43;;;;;;;7.66;72.57;102237.69;6196805;28;20054;-73
2021/03/23 10:00:22;;;;;;;18.40;8.70;;;;;;;7.48;72.91;102240.63;6196833;28;20058;-72
2021/03/23 10:03:33;;;;;;;16.63;8.15;;;;;;;7.60;73.25;102236.06;6195925;28;20054;-72
2021/03/23 10:06:45;;;;;;;18.98;9.15;;;;;;;7.52;73.79;102229.22;6196849;28;20061;-72
2021/03/23 10:09:47;;;;;;;16.45;7.80;;;;;;;7.52;74.48;102234.47;6196755;28;20561;-71
2021/03/23 10:12:48;;;;;;;25.30;8.93;;;;;;;7.76;71.96;102233.16;6195879;28;20053;-72
2021/03/23 10:15:49;;;;;;;18.75;9.25;;;;;;;7.78;71.74;102229.66;6196692;28;20046;-72
2021/03/23 10:18:50;;;;;;;18.90;9.48;;;;;;;7.66;72.20;102229.00;6196486;28;20547;-72
2021/03/23 10:21:53;;;;;;;18.52;9.10;;;;;;;7.76;72.45;102235.78;6198069;28;20053;-71
2021/03/23 10:24:56;;;;;;;21.27;9.95;;;;;;;7.60;72.67;102238.69;6200270;28;20054;-71
2021/03/23 10:28:00;;;;;;;21.50;10.02;;;;;;;7.68;73.82;102235.94;6200690;28;20133;-72
2021/03/23 10:31:04;;;;;;;23.67;11.07;;;;;;;7.84;71.56;102241.75;6196283;28;20157;-71
2021/03/23 10:34:10;;;;;;;29.38;11.90;;;;;;;7.74;71.04;102245.44;6192582;28;20133;-72
2021/03/23 10:37:20;;;;;;;25.85;11.00;;;;;;;7.96;71.11;102248.53;6200660;28;20072;-72
2021/03/23 10:40:36;;;;;;;27.90;14.07;;;;;;;7.82;68.51;102254.88;6192690;28;20088;-72
2021/03/23 10:43:40;;;;;;;28.20;14.10;;;;;;;7.88;69.10;102256.50;6186679;28;20347;-71
2021/03/23 10:46:43;;;;;;;35.58;14.95;;;;;;;7.88;67.83;102256.50;6177073;28;20051;-72
2021/03/23 10:49:44;;;;;;;40.13;17.05;;;;;;;8.00;68.40;102252.81;6192180;28;20048;-72
2021/03/23 10:52:45;;;;;;;34.15;16.63;;;;;;;8.10;68.14;102246.50;6199551;28;20407;-72
2021/03/23 10:55:50;;;;;;;33.78;17.10;;;;;;;8.06;68.21;102255.31;6200078;28;20057;-72
2021/03/23 10:59:05;;;;;;;34.28;15.85;;;;;;;8.16;68.03;102253.38;6200376;28;20050;-72
2021/03/23 11:02:19;;;;;;;38.40;18.90;;;;;;;8.10;68.30;102255.22;6199533;28;20047;-72
2021/03/23 11:05:22;;;;;;;35.58;17.30;;;;;;;8.07;68.96;102260.50;6199312;28;20050;-71
2021/03/23 11:08:23;;;;;;;33.78;16.90;;;;;;;8.23;68.96;102253.25;6183776;28;20055;-71
2021/03/23 11:11:25;;;;;;;34.13;17.88;;;;;;;7.85;68.98;102257.41;6188322;28;20046;-72
2021/03/23 11:14:26;;;;;;;32.75;17.90;;;;;;;8.02;69.61;102249.25;6192110;28;20054;-70
2021/03/23 11:17:28;;;;;;;40.47;18.50;;;;;;;8.19;68.46;102253.34;6199893;28;20061;-71
2021/03/23 11:20:36;;;;;;;41.58;19.40;;;;;;;8.15;67.91;102263.00;6198532;28;20050;-71
2021/03/23 11:23:41;;;;;;;37.35;18.80;;;;;;;8.07;68.37;102252.66;6193141;28;20058;-71
2021/03/23 11:26:44;;;;;;;39.53;19.58;;;;;;;8.23;68.75;102252.38;6199365;28;20054;-78
2021/03/23 11:29:45;;;;;;;42.38;19.25;;;;;;;8.32;68.12;102255.69;6199744;28;20049;-71
2021/03/23 11:32:47;;;;;;;35.78;19.42;;;;;;;8.07;69.41;102251.81;6198370;28;20081;-71
2021/03/23 11:35:51;;;;;;;39.65;19.52;;;;;;;8.17;69.01;102253.34;6199033;28;20133;-70
2021/03/23 11:38:52;;;;;;;46.55;19.95;;;;;;;8.14;68.75;102248.19;6189618;28;20043;-70
2021/03/23 11:42:08;;;;;;;36.50;20.20;;;;;;;8.09;69.05;102236.94;6174383;28;20050;-71
2021/03/23 11:45:28;;;;;;;39.13;18.40;;;;;;;8.43;69.39;102237.16;6174626;28;20107;-70
2021/03/23 11:48:34;;;;;;;36.35;19.23;;;;;;;8.42;67.69;102230.19;6174900;28;20047;-70
2021/03/23 11:51:38;;;;;;;40.63;19.88;;;;;;;8.38;68.59;102229.38;6174268;28;20077;-70
2021/03/23 11:54:39;;;;;;;37.38;18.83;;;;;;;8.60;68.21;102231.56;6174892;28;20055;-70
2021/03/23 11:57:41;;;;;;;39.90;20.38;;;;;;;8.70;67.01;102230.47;6174767;28;20054;-70
2021/03/23 12:00:43;;;;;;;42.55;21.52;;;;;;;8.92;67.04;102227.38;6174075;28;20054;-71
2021/03/23 12:03:44;;;;;;;43.95;21.20;;;;;;;9.20;66.27;102224.97;6174363;28;20444;-71
2021/03/23 12:06:54;;;;;;;42.33;21.83;;;;;;;9.53;64.30;102225.91;6189549;28;20053;-71
2021/03/23 12:10:00;;;;;;;47.78;23.42;;;;;;;9.61;63.11;102227.44;6196341;28;20054;-71
2021/03/23 12:13:14;;;;;;;42.15;21.17;;;;;;;9.65;63.86;102223.84;6180841;28;20047;-71
2021/03/23 12:16:20;;;;;;;40.53;23.25;;;;;;;9.55;63.44;102230.22;6195495;28;20105;-71
2021/03/23 12:19:23;;;;;;;56.88;23.73;;;;;;;9.67;62.53;102226.41;6186463;28;20051;-70
2021/03/23 12:22:25;;;;;;;46.85;23.63;;;;;;;10.24;64.20;102228.41;6181410;28;20058;-70
2021/03/23 12:25:26;;;;;;;42.75;21.80;;;;;;;10.57;61.03;102215.19;6173974;28;20479;-77
2021/03/23 12:28:30;;;;;;;44.05;21.98;;;;;;;10.46;60.39;102218.16;6214866;23;20396;-77
2021/03/23 12:31:31;;;;;;;43.08;22.55;;;;;;;10.10;62.15;102214.78;6196225;28;20058;-79
2021/03/23 12:34:32;;;;;;;44.47;22.98;;;;;;;9.97;60.99;102218.63;6197739;28;20050;-79
2021/03/23 12:37:33;;;;;;;41.00;23.00;;;;;;;9.82;60.67;102215.53;6189018;28;20065;-81
2021/03/23 12:40:34;;;;;;;48.35;24.77;;;;;;;9.62;62.29;102223.91;6195145;28;20096;-80
2021/03/23 12:43:36;;;;;;;46.13;23.65;;;;;;;9.50;63.21;102213.75;6177655;28;20054;-80
2021/03/23 12:46:37;;;;;;;44.33;24.58;;;;;;;9.27;64.95;102216.06;6173546;28;20053;-80
2021/03/23 12:49:38;;;;;;;43.55;23.70;;;;;;;9.38;63.53;102214.03;6182516;28;20054;-81
2021/03/23 12:52:39;;;;;;;49.55;25.33;;;;;;;9.91;62.82;102210.03;6191279;28;20050;-81
2021/03/23 12:55:43;;;;;;;48.63;24.45;;;;;;;10.43;62.11;102212.13;6197793;28;20066;-79
2021/03/23 12:58:45;;;;;;;44.58;23.48;;;;;;;10.73;58.84;102205.97;6197635;28;20046;-80
2021/03/23 13:01:46;;;;;;;44.63;25.17;;;;;;;10.84;58.94;102208.25;6196895;28;20050;-79
2021/03/23 13:04:48;;;;;;;40.42;23.00;;;;;;;10.60;60.70;102199.34;6197532;28;20054;-79
2021/03/23 13:07:51;;;;;;;47.47;23.25;;;;;;;10.60;58.84;102202.84;6197420;28;20046;-78
2021/03/23 13:10:57;;;;;;;40.38;23.13;;;;;;;10.66;58.84;102204.41;6196809;28;20072;-78
2021/03/23 13:14:02;;;;;;;39.70;22.73;;;;;;;11.03;58.16;102204.13;6197598;28;20050;-78
2021/03/23 13:17:04;;;;;;;45.30;24.02;;;;;;;11.26;57.29;102206.00;6197512;28;20488;-79
2021/03/23 13:20:06;;;;;;;40.42;21.20;;;;;;;11.21;57.05;102188.66;6197516;28;20077;-81
2021/03/23 13:23:19;;;;;;;46.00;22.33;;;;;;;11.01;57.89;102186.69;6196607;28;20058;-79
2021/03/23 13:26:22;;;;;;;40.72;21.58;;;;;;;11.11;58.67;102188.97;6194091;28;20073;-77
2021/03/23 13:29:23;;;;;;;38.67;22.95;;;;;;;11.54;57.71;102194.59;6176173;28;20054;-78
2021/03/23 13:32:27;;;;;;;44.05;22.27;;;;;;;11.53;56.36;102185.81;6183344;28;20049;-79
2021/03/23 13:35:30;;;;;;;37.97;22.88;;;;;;;11.19;58.67;102186.09;6183737;28;20097;-79
2021/03/23 13:38:31;;;;;;;41.85;23.20;;;;;;;11.50;58.71;102178.03;6183310;28;20069;-79
2021/03/23 13:41:32;;;;;;;45.78;22.38;;;;;;;11.35;58.81;102176.75;6186208;28;20054;-78
2021/03/23 13:44:39;;;;;;;45.42;22.15;;;;;;;11.29;58.51;102176.13;6176525;28;20060;-80
2021/03/23 13:47:43;;;;;;;39.35;22.77;;;;;;;10.95;59.71;102169.34;6170946;28;20428;-80
2021/03/23 13:50:44;;;;;;;44.50;22.02;;;;;;;10.88;59.17;102168.66;6172878;28;20066;-80
2021/03/23 13:53:45;;;;;;;36.10;21.20;;;;;;;11.76;56.20;102163.06;6173000;28;20107;-79
2021/03/23 13:56:47;;;;;;;44.90;22.67;;;;;;;11.86;56.19;102162.75;6188255;28;20057;-80
2021/03/23 13:59:49;;;;;;;42.03;22.55;;;;;;;12.06;57.04;102161.16;6202055;28;20047;-79
2021/03/23 14:02:50;;;;;;;47.55;22.77;;;;;;;11.64;56.17;102159.13;6201530;28;20504;-79
2021/03/23 14:05:52;;;;;;;42.92;22.52;;;;;;;11.46;56.79;102157.97;6201612;28;20082;-79
2021/03/23 14:08:54;;;;;;;40.72;22.38;;;;;;;11.27;58.07;102163.00;6201808;28;20115;-80
2021/03/23 14:11:57;;;;;;;43.92;22.75;;;;;;;10.79;59.35;102173.34;6201243;28;20042;-79
2021/03/23 14:14:59;;;;;;;44.53;22.42;;;;;;;10.84;61.41;102156.50;6201756;28;20050;-80
2021/03/23 14:18:00;;;;;;;44.25;23.45;;;;;;;11.26;59.33;102157.78;6201285;28;20526;-79
2021/03/23 14:21:01;;;;;;;44.58;23.98;;;;;;;10.90;60.00;102155.44;6201181;28;20058;-78
2021/03/23 14:24:02;;;;;;;43.22;24.42;;;;;;;10.70;60.32;102156.09;6201570;28;20510;-76